createdAt,value
2022-10-03T00:00:09.632Z,39.90
2022-10-03T00:03:23.976Z,36.15
2022-10-03T00:06:12.000Z,27.13
2022-10-03T00:09:15.567Z,28.83
2022-10-03T00:12:05.691Z,32.45
2022-10-03T00:14:48.732Z,31.48
2022-10-03T00:17:26.782Z,34.85
2022-10-03T00:20:12.130Z,30.70
2022-10-03T00:22:49.894Z,35.65
2022-10-03T00:25:35.132Z,34.63
2022-10-03T00:28:20.601Z,34.80
2022-10-03T00:31:12.263Z,30.08
2022-10-03T00:34:02.454Z,29.90
2022-10-03T00:36:43.809Z,29.35
2022-10-03T00:39:39.669Z,31.52
2022-10-03T00:43:11.759Z,30.05
2022-10-03T00:46:45.844Z,31.60
2022-10-03T00:50:08.632Z,32.67
2022-10-03T00:53:18.002Z,28.03
2022-10-03T00:56:16.909Z,26.63
2022-10-03T00:59:11.898Z,28.65
2022-10-03T01:01:48.440Z,34.83
2022-10-03T01:04:55.071Z,31.15
2022-10-03T01:07:54.999Z,30.73
2022-10-03T01:10:36.375Z,30.52
2022-10-03T01:13:31.498Z,32.05
2022-10-03T01:16:13.487Z,32.47
2022-10-03T01:19:02.230Z,37.00
2022-10-03T01:21:43.836Z,28.58
2022-10-03T01:24:47.780Z,33.47
2022-10-03T01:27:22.616Z,32.28
2022-10-03T01:30:16.106Z,33.83
2022-10-03T01:32:53.487Z,31.42
2022-10-03T01:35:33.017Z,33.55
2022-10-03T01:38:22.567Z,27.30
2022-10-03T01:41:03.147Z,32.80
2022-10-03T01:43:42.881Z,28.05
2022-10-03T01:46:22.515Z,34.42
2022-10-03T01:49:03.358Z,40.65
2022-10-03T01:51:46.923Z,33.85
2022-10-03T01:54:29.761Z,33.70
2022-10-03T01:59:42.742Z,24.63
2022-10-03T02:02:25.130Z,32.40
2022-10-03T02:05:04.648Z,31.13
2022-10-03T02:07:47.099Z,32.20
2022-10-03T02:10:29.631Z,31.30
2022-10-03T02:13:10.865Z,28.40
2022-10-03T02:15:55.208Z,30.92
2022-10-03T02:18:39.021Z,32.90
2022-10-03T02:21:16.876Z,32.30
2022-10-03T02:23:48.133Z,30.35
2022-10-03T02:27:44.033Z,40.03
2022-10-03T02:30:21.434Z,29.30
2022-10-03T02:33:40.153Z,33.10
2022-10-03T02:36:59.515Z,30.08
2022-10-03T02:40:33.041Z,37.53
2022-10-03T02:43:54.308Z,30.83
2022-10-03T02:47:07.068Z,26.30
2022-10-03T02:50:33.961Z,30.50
2022-10-03T02:54:00.462Z,26.08
2022-10-03T02:57:31.348Z,25.50
2022-10-03T03:00:15.547Z,25.83
2022-10-03T03:03:21.201Z,28.05
2022-10-03T03:06:55.282Z,31.45
2022-10-03T03:10:07.504Z,26.50
2022-10-03T03:13:39.871Z,23.65
2022-10-03T03:16:44.255Z,22.27
2022-10-03T03:19:52.669Z,29.05
2022-10-03T03:22:41.310Z,28.50
2022-10-03T03:25:45.582Z,35.83
2022-10-03T03:28:33.227Z,35.13
2022-10-03T03:31:12.436Z,33.95
2022-10-03T03:34:07.281Z,45.42
2022-10-03T03:36:45.219Z,38.58
2022-10-03T03:39:43.823Z,34.78
2022-10-03T03:42:40.394Z,49.28
2022-10-03T03:45:38.914Z,103.70
2022-10-03T03:48:54.946Z,70.90
2022-10-03T03:51:35.134Z,64.20
2022-10-03T03:54:34.548Z,69.78
2022-10-03T03:57:33.231Z,60.25
2022-10-03T04:00:15.140Z,62.22
2022-10-03T04:03:12.183Z,68.82
2022-10-03T04:06:04.124Z,75.63
2022-10-03T04:08:59.304Z,76.13
2022-10-03T04:11:45.530Z,75.63
2022-10-03T04:14:46.563Z,81.05
2022-10-03T04:18:00.440Z,81.97
2022-10-03T04:20:58.658Z,83.28
2022-10-03T04:23:54.217Z,73.35
2022-10-03T04:26:39.643Z,87.68
2022-10-03T04:29:47.288Z,71.10
2022-10-03T04:32:48.432Z,81.88
2022-10-03T04:35:39.633Z,80.93
2022-10-03T04:38:17.121Z,86.70
2022-10-03T04:40:58.867Z,93.20
2022-10-03T04:43:42.157Z,78.28
2022-10-03T04:46:29.170Z,87.63
2022-10-03T04:49:12.836Z,82.68
2022-10-03T04:51:55.719Z,96.68
2022-10-03T04:54:38.838Z,81.20
2022-10-03T04:59:51.516Z,66.40
2022-10-03T05:02:46.837Z,81.00
2022-10-03T05:05:31.248Z,90.47
2022-10-03T05:08:14.036Z,75.40
2022-10-03T05:10:59.169Z,89.90
2022-10-03T05:14:03.717Z,82.97
2022-10-03T05:16:42.488Z,84.28
2022-10-03T05:19:53.157Z,100.57
2022-10-03T05:22:43.375Z,83.28
2022-10-03T05:25:35.818Z,90.70
2022-10-03T05:28:22.409Z,84.68
2022-10-03T05:31:00.561Z,55.85
2022-10-03T05:33:44.078Z,69.00
2022-10-03T05:36:30.447Z,49.20
2022-10-03T05:39:27.504Z,40.17
2022-10-03T05:42:22.712Z,63.88
2022-10-03T05:45:04.383Z,46.40
2022-10-03T05:47:49.875Z,65.07
2022-10-03T05:50:57.963Z,49.75
2022-10-03T05:54:02.812Z,87.10
2022-10-03T05:56:56.281Z,42.25
2022-10-03T06:00:02.535Z,46.05
2022-10-03T06:03:02.151Z,28.65
2022-10-03T06:06:02.040Z,26.15
2022-10-03T06:08:54.083Z,23.88
2022-10-03T06:11:51.604Z,24.48
2022-10-03T06:14:43.636Z,26.00
2022-10-03T06:17:36.796Z,25.27
2022-10-03T06:20:52.685Z,36.22
2022-10-03T06:24:04.851Z,24.60
2022-10-03T06:27:26.389Z,47.85
2022-10-03T06:30:14.256Z,21.02
2022-10-03T06:33:57.655Z,24.38
2022-10-03T06:36:57.389Z,17.40
2022-10-03T06:40:19.963Z,49.92
2022-10-03T06:43:16.053Z,18.30
2022-10-03T06:46:55.093Z,21.83
2022-10-03T06:49:44.068Z,20.08
2022-10-03T06:53:17.926Z,22.33
2022-10-03T06:56:11.133Z,20.58
2022-10-03T06:59:19.261Z,20.85
2022-10-03T07:02:23.729Z,19.73
2022-10-03T07:06:10.382Z,23.33
2022-10-03T07:09:29.986Z,18.52
2022-10-03T07:12:57.849Z,21.25
2022-10-03T07:16:26.634Z,23.95
2022-10-03T07:19:31.406Z,28.77
2022-10-03T07:22:56.844Z,25.90
2022-10-03T07:26:23.409Z,25.27
2022-10-03T07:29:23.573Z,28.48
2022-10-03T07:33:08.121Z,26.70
2022-10-03T07:36:09.534Z,21.42
2022-10-03T07:39:26.186Z,24.48
2022-10-03T07:42:24.924Z,24.52
2022-10-03T07:45:30.619Z,27.05
2022-10-03T07:48:40.708Z,46.40
2022-10-03T07:51:24.073Z,26.23
2022-10-03T07:54:44.288Z,34.80
2022-10-03T07:57:55.432Z,23.38
2022-10-03T08:00:28.239Z,33.88
2022-10-03T08:04:01.281Z,31.38
2022-10-03T08:06:39.315Z,27.23
2022-10-03T08:09:54.396Z,28.63
2022-10-03T08:13:04.120Z,30.15
2022-10-03T08:15:53.928Z,26.65
2022-10-03T08:19:10.349Z,37.53
2022-10-03T08:22:01.947Z,30.98
2022-10-03T08:25:03.484Z,35.85
2022-10-03T08:27:52.993Z,34.35
2022-10-03T08:30:28.948Z,31.35
2022-10-03T08:33:23.718Z,35.05
2022-10-03T08:36:45.873Z,30.50
2022-10-03T08:39:26.381Z,27.65
2022-10-03T08:42:50.044Z,34.60
2022-10-03T08:49:03.443Z,21.98
2022-10-03T08:52:10.349Z,26.52
2022-10-03T08:55:31.160Z,29.27
2022-10-03T08:58:48.605Z,34.25
2022-10-03T09:01:55.682Z,37.53
2022-10-03T09:05:11.587Z,30.52
2022-10-03T09:08:20.078Z,36.83
2022-10-03T09:11:43.381Z,39.88
2022-10-03T09:15:00.776Z,40.50
2022-10-03T09:18:22.939Z,37.20
2022-10-03T09:22:11.720Z,36.28
2022-10-03T09:25:30.217Z,30.67
2022-10-03T09:29:06.422Z,40.78
2022-10-03T09:32:25.715Z,31.38
2022-10-03T09:35:42.302Z,31.35
2022-10-03T09:39:01.531Z,35.50
2022-10-03T09:42:28.173Z,36.47
2022-10-03T09:45:37.980Z,36.47
2022-10-03T09:48:45.595Z,42.88
2022-10-03T09:51:27.482Z,33.17
2022-10-03T09:54:45.338Z,40.75
2022-10-03T09:58:14.043Z,33.92
2022-10-03T10:01:21.828Z,40.28
2022-10-03T10:04:54.996Z,34.42
2022-10-03T10:08:10.371Z,37.47
2022-10-03T10:11:10.826Z,32.80
2022-10-03T10:14:32.641Z,35.17
2022-10-03T10:18:02.525Z,39.20
2022-10-03T10:21:03.951Z,45.58
2022-10-03T10:23:51.134Z,34.97
2022-10-03T10:27:01.773Z,43.67
2022-10-03T10:30:01.760Z,39.50
2022-10-03T10:33:33.343Z,41.85
2022-10-03T10:37:09.323Z,42.55
2022-10-03T10:40:26.369Z,38.55
2022-10-03T10:44:06.435Z,34.08
2022-10-03T10:47:49.073Z,36.58
2022-10-03T10:51:21.457Z,54.88
2022-10-03T10:54:54.253Z,44.63
2022-10-03T10:57:54.625Z,36.15
2022-10-03T11:00:31.670Z,37.10
2022-10-03T11:04:09.372Z,36.15
2022-10-03T11:07:26.804Z,37.83
2022-10-03T11:10:31.273Z,36.35
2022-10-03T11:14:16.876Z,36.22
2022-10-03T11:17:51.034Z,44.80
2022-10-03T11:21:14.376Z,74.93
2022-10-03T11:24:20.379Z,34.65
2022-10-03T11:27:47.605Z,35.67
2022-10-03T11:30:51.272Z,40.33
2022-10-03T11:34:01.045Z,53.05
2022-10-03T11:37:26.404Z,58.78
2022-10-03T11:40:15.120Z,42.30
2022-10-03T11:42:59.248Z,56.80
2022-10-03T11:45:34.222Z,58.45
2022-10-03T11:48:39.695Z,124.80
2022-10-03T11:51:15.743Z,40.13
2022-10-03T11:53:50.683Z,47.65
2022-10-03T11:56:39.300Z,49.40
2022-10-03T11:59:52.017Z,45.90
2022-10-03T12:02:46.576Z,97.82
2022-10-03T12:05:26.122Z,48.85
2022-10-03T12:08:30.454Z,59.65
2022-10-03T12:11:11.474Z,97.97
2022-10-03T12:14:05.246Z,59.50
2022-10-03T12:16:58.884Z,116.65
2022-10-03T12:19:34.833Z,100.70
2022-10-03T12:22:19.962Z,57.15
2022-10-03T12:24:49.916Z,48.60
2022-10-03T12:27:39.442Z,81.68
2022-10-03T12:30:17.621Z,71.47
2022-10-03T12:33:09.096Z,77.38
2022-10-03T12:35:47.001Z,143.43
2022-10-03T12:38:40.431Z,82.32
2022-10-03T12:41:25.929Z,56.78
2022-10-03T12:44:17.555Z,59.05
2022-10-03T12:47:03.159Z,73.07
2022-10-03T12:49:52.562Z,78.85
2022-10-03T12:52:29.788Z,84.72
2022-10-03T12:55:27.388Z,62.95
2022-10-03T12:58:07.340Z,55.50
2022-10-03T13:00:47.543Z,45.08
2022-10-03T13:03:34.144Z,98.28
2022-10-03T13:07:02.962Z,79.45
2022-10-03T13:10:10.941Z,149.85
2022-10-03T13:12:51.223Z,174.48
2022-10-03T13:16:06.814Z,63.65
2022-10-03T13:19:06.625Z,74.45
2022-10-03T13:22:07.264Z,103.82
2022-10-03T13:24:43.300Z,293.13
2022-10-03T13:27:33.439Z,70.00
2022-10-03T13:30:14.470Z,64.90
2022-10-03T13:32:47.847Z,116.00
2022-10-03T13:35:55.064Z,162.55
2022-10-03T13:38:55.173Z,187.73
2022-10-03T13:41:50.218Z,111.15
2022-10-03T13:44:23.866Z,220.38
2022-10-03T13:47:01.648Z,250.98
2022-10-03T13:49:35.980Z,218.10
2022-10-03T13:52:18.942Z,220.80
2022-10-03T13:55:28.044Z,218.95
2022-10-03T13:58:16.018Z,187.02
2022-10-03T14:01:11.831Z,222.73
2022-10-03T14:03:54.563Z,218.10
2022-10-03T14:06:36.616Z,251.57
2022-10-03T14:10:00.555Z,262.52
2022-10-03T14:12:55.313Z,218.40
2022-10-03T14:15:42.126Z,271.58
2022-10-03T14:18:27.576Z,269.95
2022-10-03T14:22:06.287Z,293.27
2022-10-03T14:25:00.904Z,241.48
2022-10-03T14:27:53.284Z,259.63
2022-10-03T14:30:24.799Z,239.10
2022-10-03T14:33:13.268Z,243.20
2022-10-03T14:35:56.208Z,267.10
2022-10-03T14:39:02.374Z,245.85
2022-10-03T14:41:50.328Z,219.52
2022-10-03T14:44:23.780Z,211.73
2022-10-03T14:46:58.816Z,260.70
2022-10-03T14:49:53.542Z,234.70
2022-10-03T14:52:31.605Z,245.60
2022-10-03T14:55:13.561Z,233.85
2022-10-03T14:58:09.278Z,212.85
2022-10-03T15:00:45.430Z,232.77
2022-10-03T15:03:22.985Z,220.80
2022-10-03T15:06:34.023Z,200.95
2022-10-03T15:09:10.208Z,204.57
2022-10-03T15:11:49.868Z,221.35
2022-10-03T15:14:22.620Z,210.10
2022-10-03T15:16:56.312Z,165.15
2022-10-03T15:19:37.439Z,196.98
2022-10-03T15:22:22.214Z,177.60
2022-10-03T15:24:55.023Z,222.25
2022-10-03T15:27:25.529Z,264.08
2022-10-03T15:29:59.693Z,200.13
2022-10-03T15:32:34.962Z,213.00
2022-10-03T15:35:06.121Z,220.65
2022-10-03T15:37:45.403Z,227.55
2022-10-03T15:40:32.173Z,179.60
2022-10-03T15:43:09.383Z,178.88
2022-10-03T15:45:40.944Z,145.02
2022-10-03T15:48:19.954Z,183.02
2022-10-03T15:50:57.065Z,176.48
2022-10-03T15:53:36.425Z,110.35
2022-10-03T15:56:15.482Z,153.10
2022-10-03T15:58:51.063Z,115.63
2022-10-03T16:01:26.979Z,152.23
2022-10-03T16:04:01.095Z,97.10
2022-10-03T16:06:40.230Z,102.55
2022-10-03T16:09:25.072Z,92.80
2022-10-03T16:12:13.035Z,69.03
2022-10-03T16:14:45.953Z,55.90
2022-10-03T16:17:21.968Z,173.48
2022-10-03T16:19:56.406Z,76.60
2022-10-03T16:22:35.043Z,92.72
2022-10-03T16:25:14.135Z,65.57
2022-10-03T16:27:55.982Z,109.38
2022-10-03T16:30:29.212Z,75.30
2022-10-03T16:33:12.792Z,49.90
2022-10-03T16:35:48.662Z,93.57
2022-10-03T16:38:26.049Z,64.95
2022-10-03T16:40:59.360Z,59.35
2022-10-03T16:43:32.973Z,61.72
2022-10-03T16:46:10.341Z,44.58
2022-10-03T16:49:02.395Z,51.90
2022-10-03T16:51:40.801Z,50.53
2022-10-03T16:54:14.864Z,58.05
2022-10-03T16:56:51.212Z,65.25
2022-10-03T16:59:23.165Z,57.92
2022-10-03T17:01:55.698Z,73.05
2022-10-03T17:07:00.993Z,67.03
2022-10-03T17:09:38.519Z,52.67
2022-10-03T17:12:17.177Z,83.97
2022-10-03T17:14:47.207Z,47.58
2022-10-03T17:17:31.298Z,51.92
2022-10-03T17:20:07.157Z,66.97
2022-10-03T17:22:43.514Z,58.55
2022-10-03T17:25:42.992Z,110.85
2022-10-03T17:28:24.592Z,88.63
2022-10-03T17:31:00.378Z,136.60
2022-10-03T17:33:39.838Z,53.63
2022-10-03T17:37:20.938Z,57.33
2022-10-03T17:39:58.805Z,64.53
2022-10-03T17:42:42.188Z,55.90
2022-10-03T17:45:37.103Z,55.83
2022-10-03T17:48:21.047Z,53.53
2022-10-03T17:51:04.689Z,130.52
2022-10-03T17:53:39.703Z,85.72
2022-10-03T17:56:14.701Z,212.85
2022-10-03T17:58:49.966Z,158.57
2022-10-03T18:01:23.669Z,136.35
2022-10-03T18:03:58.208Z,94.95
2022-10-03T18:06:47.348Z,60.95
2022-10-03T18:09:41.023Z,85.05
2022-10-03T18:12:30.272Z,243.77
2022-10-03T18:15:48.155Z,64.38
2022-10-03T18:19:09.757Z,62.70
2022-10-03T18:22:06.477Z,52.58
2022-10-03T18:25:01.526Z,57.20
2022-10-03T18:28:14.503Z,64.15
2022-10-03T18:30:53.726Z,141.25
2022-10-03T18:33:30.359Z,121.85
2022-10-03T18:36:08.905Z,118.95
2022-10-03T18:38:40.489Z,121.18
2022-10-03T18:41:16.973Z,76.53
2022-10-03T18:43:54.004Z,67.78
2022-10-03T18:46:27.067Z,114.35
2022-10-03T18:49:35.185Z,77.63
2022-10-03T18:52:00.538Z,105.88
2022-10-03T18:54:47.544Z,82.30
2022-10-03T18:57:26.488Z,53.10
2022-10-03T19:00:03.123Z,56.25
2022-10-03T19:02:40.401Z,98.45
2022-10-03T19:05:17.727Z,119.50
2022-10-03T19:07:55.127Z,57.40
2022-10-03T19:10:43.840Z,52.30
2022-10-03T19:13:29.668Z,146.73
2022-10-03T19:16:33.840Z,71.93
2022-10-03T19:19:11.453Z,62.47
2022-10-03T19:21:43.280Z,81.13
2022-10-03T19:24:30.582Z,68.43
2022-10-03T19:27:17.634Z,61.08
2022-10-03T19:29:52.267Z,102.60
2022-10-03T19:32:33.521Z,67.07
2022-10-03T19:35:06.453Z,94.03
2022-10-03T19:37:45.797Z,63.03
2022-10-03T19:40:30.966Z,72.57
2022-10-03T19:43:33.181Z,57.03
2022-10-03T19:46:35.001Z,103.63
2022-10-03T19:49:33.644Z,67.55
2022-10-03T19:52:28.016Z,133.65
2022-10-03T19:55:03.976Z,102.55
2022-10-03T19:57:43.121Z,104.75
2022-10-03T20:00:40.304Z,76.65
2022-10-03T20:03:21.621Z,74.53
2022-10-03T20:06:19.643Z,87.15
2022-10-03T20:08:54.823Z,198.27
2022-10-03T20:11:40.694Z,188.63
2022-10-03T20:14:19.777Z,177.80
2022-10-03T20:16:50.737Z,61.28
2022-10-03T20:19:27.273Z,253.75
2022-10-03T20:21:59.182Z,77.03
2022-10-03T20:24:33.965Z,62.75
2022-10-03T20:27:30.882Z,77.80
2022-10-03T20:30:26.745Z,65.00
2022-10-03T20:32:59.347Z,90.03
2022-10-03T20:38:17.436Z,53.65
2022-10-03T20:40:55.550Z,71.65
2022-10-03T20:43:41.827Z,84.50
2022-10-03T20:46:26.004Z,62.50
2022-10-03T20:49:22.289Z,65.32
2022-10-03T20:52:02.469Z,58.78
2022-10-03T20:54:37.927Z,62.65
2022-10-03T20:57:18.178Z,66.07
2022-10-03T20:59:51.018Z,60.40
2022-10-03T21:02:30.739Z,69.72
2022-10-03T21:05:06.275Z,51.78
2022-10-03T21:07:43.411Z,55.13
2022-10-03T21:10:25.338Z,114.07
2022-10-03T21:12:58.975Z,66.10
2022-10-03T21:15:40.922Z,62.88
2022-10-03T21:18:23.015Z,72.20
2022-10-03T21:21:07.424Z,49.00
2022-10-03T21:23:44.781Z,53.25
2022-10-03T21:26:14.454Z,53.58
2022-10-03T21:28:43.646Z,52.75
2022-10-03T21:31:38.504Z,56.53
2022-10-03T21:34:19.071Z,47.92
2022-10-03T21:36:58.064Z,48.70
2022-10-03T21:39:41.829Z,52.70
2022-10-03T21:42:22.043Z,55.13
2022-10-03T21:45:10.830Z,50.67
2022-10-03T21:47:49.986Z,55.85
2022-10-03T21:50:25.897Z,55.63
2022-10-03T21:53:18.637Z,57.35
2022-10-03T21:56:21.795Z,49.53
2022-10-03T22:04:27.761Z,52.63
2022-10-03T22:07:06.405Z,52.88
2022-10-03T22:09:35.787Z,48.95
2022-10-03T22:12:08.288Z,50.60
2022-10-03T22:14:46.489Z,53.55
2022-10-03T22:17:25.312Z,53.97
2022-10-03T22:20:12.387Z,69.70
2022-10-03T22:22:56.217Z,56.85
2022-10-03T22:25:56.913Z,55.45
2022-10-03T22:28:43.223Z,64.03
2022-10-03T22:31:26.171Z,70.18
2022-10-03T22:34:18.101Z,113.05
2022-10-03T22:36:47.486Z,86.43
2022-10-03T22:39:19.606Z,63.60
2022-10-03T22:41:54.484Z,59.22
2022-10-03T22:44:29.249Z,132.13
2022-10-03T22:47:12.977Z,126.63
2022-10-03T22:49:45.889Z,242.48
2022-10-03T22:52:23.867Z,138.18
2022-10-03T22:54:55.170Z,121.03
2022-10-03T22:57:26.486Z,75.05
2022-10-03T23:00:02.254Z,70.57
2022-10-03T23:02:34.907Z,152.43
2022-10-03T23:08:08.279Z,73.80
2022-10-03T23:10:49.012Z,91.13
2022-10-03T23:13:37.629Z,84.93
2022-10-03T23:16:29.918Z,80.95
2022-10-03T23:19:34.994Z,78.45
2022-10-03T23:22:05.973Z,173.52
2022-10-03T23:24:43.827Z,98.57
2022-10-03T23:27:49.522Z,108.07
2022-10-03T23:30:54.245Z,188.68
2022-10-03T23:33:53.836Z,71.82
2022-10-03T23:36:25.515Z,137.98
2022-10-03T23:39:02.479Z,96.50
2022-10-03T23:41:56.440Z,123.72
2022-10-03T23:44:48.877Z,227.60
2022-10-03T23:47:26.688Z,114.03
2022-10-03T23:49:58.457Z,93.72
2022-10-03T23:52:32.015Z,83.07
2022-10-03T23:55:08.378Z,195.93
2022-10-03T23:57:42.797Z,121.63
